sensor_id;sensor_type;location;lat;lon;timestamp;P1;durP1;ratioP1;P2;durP2;ratioP2
69172;SDS011;56280;49.662;8.408;2023-02-28T00:00:12;11.85;;;10.90;;
69172;SDS011;56280;49.662;8.408;2023-02-28T00:02:39;12.35;;;11.45;;
69172;SDS011;56280;49.662;8.408;2023-02-28T00:05:06;12.07;;;11.07;;
69172;SDS011;56280;49.662;8.408;2023-02-28T00:07:34;13.30;;;12.27;;
69172;SDS011;56280;49.662;8.408;2023-02-28T00:09:59;12.90;;;12.00;;
69172;SDS011;56280;49.662;8.408;2023-02-28T00:12:25;11.57;;;10.67;;
69172;SDS011;56280;49.662;8.408;2023-02-28T00:14:51;11.90;;;10.90;;
69172;SDS011;56280;49.662;8.408;2023-02-28T00:17:16;12.93;;;11.95;;
69172;SDS011;56280;49.662;8.408;2023-02-28T00:19:46;12.33;;;11.43;;
69172;SDS011;56280;49.662;8.408;2023-02-28T00:22:13;12.50;;;11.50;;
69172;SDS011;56280;49.662;8.408;2023-02-28T00:24:39;11.73;;;10.73;;
69172;SDS011;56280;49.662;8.408;2023-02-28T00:27:04;12.77;;;11.73;;
69172;SDS011;56280;49.662;8.408;2023-02-28T00:29:30;12.63;;;11.73;;
69172;SDS011;56280;49.662;8.408;2023-02-28T00:31:55;11.27;;;10.37;;
69172;SDS011;56280;49.662;8.408;2023-02-28T00:34:20;12.40;;;11.50;;
69172;SDS011;56280;49.662;8.408;2023-02-28T00:36:45;12.33;;;11.13;;
69172;SDS011;56280;49.662;8.408;2023-02-28T00:39:13;12.10;;;11.20;;
69172;SDS011;56280;49.662;8.408;2023-02-28T00:41:39;12.60;;;11.60;;
69172;SDS011;56280;49.662;8.408;2023-02-28T00:44:04;11.13;;;10.23;;
69172;SDS011;56280;49.662;8.408;2023-02-28T00:46:29;10.97;;;10.17;;
69172;SDS011;56280;49.662;8.408;2023-02-28T00:48:55;11.93;;;11.03;;
69172;SDS011;56280;49.662;8.408;2023-02-28T00:51:20;12.63;;;11.63;;
69172;SDS011;56280;49.662;8.408;2023-02-28T00:53:45;11.77;;;10.87;;
69172;SDS011;56280;49.662;8.408;2023-02-28T00:56:11;10.70;;;9.80;;
69172;SDS011;56280;49.662;8.408;2023-02-28T00:58:36;11.57;;;10.77;;
69172;SDS011;56280;49.662;8.408;2023-02-28T01:01:01;11.10;;;10.10;;
69172;SDS011;56280;49.662;8.408;2023-02-28T01:03:27;12.03;;;11.03;;
69172;SDS011;56280;49.662;8.408;2023-02-28T01:05:52;12.10;;;11.10;;
69172;SDS011;56280;49.662;8.408;2023-02-28T01:08:20;10.65;;;9.75;;
69172;SDS011;56280;49.662;8.408;2023-02-28T01:10:46;11.47;;;10.47;;
69172;SDS011;56280;49.662;8.408;2023-02-28T01:13:12;11.85;;;10.88;;
69172;SDS011;56280;49.662;8.408;2023-02-28T01:15:38;11.75;;;10.80;;
69172;SDS011;56280;49.662;8.408;2023-02-28T01:18:08;12.07;;;11.18;;
69172;SDS011;56280;49.662;8.408;2023-02-28T01:20:33;11.07;;;10.17;;
69172;SDS011;56280;49.662;8.408;2023-02-28T01:23:01;13.90;;;12.75;;
69172;SDS011;56280;49.662;8.408;2023-02-28T01:25:27;12.60;;;11.70;;
69172;SDS011;56280;49.662;8.408;2023-02-28T01:27:52;12.30;;;11.40;;
69172;SDS011;56280;49.662;8.408;2023-02-28T01:30:17;12.43;;;11.33;;
69172;SDS011;56280;49.662;8.408;2023-02-28T01:32:43;11.65;;;10.75;;
69172;SDS011;56280;49.662;8.408;2023-02-28T01:35:08;12.90;;;11.90;;
69172;SDS011;56280;49.662;8.408;2023-02-28T01:37:33;12.57;;;11.57;;
69172;SDS011;56280;49.662;8.408;2023-02-28T01:39:58;12.40;;;11.30;;
69172;SDS011;56280;49.662;8.408;2023-02-28T01:42:24;12.13;;;11.23;;
69172;SDS011;56280;49.662;8.408;2023-02-28T01:44:57;12.43;;;11.37;;
69172;SDS011;56280;49.662;8.408;2023-02-28T01:47:31;12.27;;;11.18;;
69172;SDS011;56280;49.662;8.408;2023-02-28T01:50:04;11.98;;;10.95;;
69172;SDS011;56280;49.662;8.408;2023-02-28T01:52:32;12.30;;;11.30;;
69172;SDS011;56280;49.662;8.408;2023-02-28T01:54:59;11.52;;;10.68;;
69172;SDS011;56280;49.662;8.408;2023-02-28T01:57:29;10.93;;;10.13;;
69172;SDS011;56280;49.662;8.408;2023-02-28T02:00:04;12.00;;;11.10;;
69172;SDS011;56280;49.662;8.408;2023-02-28T02:02:33;11.82;;;10.82;;
69172;SDS011;56280;49.662;8.408;2023-02-28T02:05:12;11.50;;;10.60;;
69172;SDS011;56280;49.662;8.408;2023-02-28T02:07:41;11.70;;;10.77;;
69172;SDS011;56280;49.662;8.408;2023-02-28T02:10:14;13.68;;;12.50;;
69172;SDS011;56280;49.662;8.408;2023-02-28T02:18:34;11.30;;;10.43;;
69172;SDS011;56280;49.662;8.408;2023-02-28T02:35:09;10.50;;;9.50;;
69172;SDS011;56280;49.662;8.408;2023-02-28T02:37:43;11.18;;;10.27;;
69172;SDS011;56280;49.662;8.408;2023-02-28T02:40:19;12.60;;;11.57;;
69172;SDS011;56280;49.662;8.408;2023-02-28T02:45:28;11.87;;;10.87;;
69172;SDS011;56280;49.662;8.408;2023-02-28T02:48:00;11.98;;;10.98;;
69172;SDS011;56280;49.662;8.408;2023-02-28T02:50:37;11.87;;;10.97;;
69172;SDS011;56280;49.662;8.408;2023-02-28T02:53:05;11.63;;;10.70;;
69172;SDS011;56280;49.662;8.408;2023-02-28T02:55:34;12.88;;;11.77;;
69172;SDS011;56280;49.662;8.408;2023-02-28T02:58:05;11.93;;;10.98;;
69172;SDS011;56280;49.662;8.408;2023-02-28T03:00:37;11.70;;;10.70;;
69172;SDS011;56280;49.662;8.408;2023-02-28T03:03:05;12.60;;;11.50;;
69172;SDS011;56280;49.662;8.408;2023-02-28T03:05:35;11.93;;;11.07;;
69172;SDS011;56280;49.662;8.408;2023-02-28T03:08:07;11.50;;;10.60;;
69172;SDS011;56280;49.662;8.408;2023-02-28T03:10:37;12.33;;;11.43;;
69172;SDS011;56280;49.662;8.408;2023-02-28T03:24:49;13.27;;;12.23;;
69172;SDS011;56280;49.662;8.408;2023-02-28T03:29:57;13.93;;;12.87;;
69172;SDS011;56280;49.662;8.408;2023-02-28T03:32:42;13.25;;;11.98;;
69172;SDS011;56280;49.662;8.408;2023-02-28T03:35:17;13.50;;;12.50;;
69172;SDS011;56280;49.662;8.408;2023-02-28T03:37:46;13.97;;;12.87;;
69172;SDS011;56280;49.662;8.408;2023-02-28T03:40:16;13.77;;;12.68;;
69172;SDS011;56280;49.662;8.408;2023-02-28T03:42:45;13.15;;;12.07;;
69172;SDS011;56280;49.662;8.408;2023-02-28T03:45:18;13.85;;;12.65;;
69172;SDS011;56280;49.662;8.408;2023-02-28T03:48:02;12.98;;;11.90;;
69172;SDS011;56280;49.662;8.408;2023-02-28T03:50:41;12.93;;;11.82;;
69172;SDS011;56280;49.662;8.408;2023-02-28T03:53:11;12.05;;;11.15;;
69172;SDS011;56280;49.662;8.408;2023-02-28T03:55:48;12.32;;;11.32;;
69172;SDS011;56280;49.662;8.408;2023-02-28T03:58:30;13.20;;;12.07;;
69172;SDS011;56280;49.662;8.408;2023-02-28T04:04:06;12.05;;;11.05;;
69172;SDS011;56280;49.662;8.408;2023-02-28T04:06:32;13.80;;;12.68;;
69172;SDS011;56280;49.662;8.408;2023-02-28T04:08:58;14.07;;;12.98;;
69172;SDS011;56280;49.662;8.408;2023-02-28T04:14:00;14.75;;;13.65;;
69172;SDS011;56280;49.662;8.408;2023-02-28T04:16:27;13.40;;;12.35;;
69172;SDS011;56280;49.662;8.408;2023-02-28T04:18:53;13.90;;;12.90;;
69172;SDS011;56280;49.662;8.408;2023-02-28T04:21:18;13.80;;;12.70;;
69172;SDS011;56280;49.662;8.408;2023-02-28T04:23:46;12.77;;;11.68;;
69172;SDS011;56280;49.662;8.408;2023-02-28T04:26:12;14.23;;;13.03;;
69172;SDS011;56280;49.662;8.408;2023-02-28T04:28:37;13.67;;;12.57;;
69172;SDS011;56280;49.662;8.408;2023-02-28T04:31:03;14.83;;;13.73;;
69172;SDS011;56280;49.662;8.408;2023-02-28T04:33:30;14.32;;;13.02;;
69172;SDS011;56280;49.662;8.408;2023-02-28T04:38:30;15.00;;;13.80;;
69172;SDS011;56280;49.662;8.408;2023-02-28T04:40:58;14.02;;;12.90;;
69172;SDS011;56280;49.662;8.408;2023-02-28T04:43:25;13.80;;;12.60;;
69172;SDS011;56280;49.662;8.408;2023-02-28T04:45:54;15.10;;;14.00;;
69172;SDS011;56280;49.662;8.408;2023-02-28T04:48:30;14.00;;;12.90;;
69172;SDS011;56280;49.662;8.408;2023-02-28T04:51:03;14.35;;;13.20;;
69172;SDS011;56280;49.662;8.408;2023-02-28T04:53:30;15.15;;;13.93;;
69172;SDS011;56280;49.662;8.408;2023-02-28T04:55:56;14.50;;;13.30;;
69172;SDS011;56280;49.662;8.408;2023-02-28T04:58:22;15.10;;;13.80;;
69172;SDS011;56280;49.662;8.408;2023-02-28T05:00:49;14.45;;;13.15;;
69172;SDS011;56280;49.662;8.408;2023-02-28T05:03:14;13.57;;;12.48;;
69172;SDS011;56280;49.662;8.408;2023-02-28T05:05:40;15.32;;;14.02;;
69172;SDS011;56280;49.662;8.408;2023-02-28T05:08:05;15.23;;;13.83;;
69172;SDS011;56280;49.662;8.408;2023-02-28T05:10:30;15.10;;;13.80;;
69172;SDS011;56280;49.662;8.408;2023-02-28T05:12:56;15.55;;;14.25;;
69172;SDS011;56280;49.662;8.408;2023-02-28T05:15:22;16.77;;;15.37;;
69172;SDS011;56280;49.662;8.408;2023-02-28T05:17:49;15.65;;;14.30;;
69172;SDS011;56280;49.662;8.408;2023-02-28T05:20:14;15.53;;;14.13;;
69172;SDS011;56280;49.662;8.408;2023-02-28T05:22:40;15.33;;;14.03;;
69172;SDS011;56280;49.662;8.408;2023-02-28T05:25:06;15.53;;;14.23;;
69172;SDS011;56280;49.662;8.408;2023-02-28T05:27:32;16.10;;;14.48;;
69172;SDS011;56280;49.662;8.408;2023-02-28T05:29:57;15.67;;;14.13;;
69172;SDS011;56280;49.662;8.408;2023-02-28T05:32:23;16.13;;;14.48;;
69172;SDS011;56280;49.662;8.408;2023-02-28T05:34:49;14.60;;;13.20;;
69172;SDS011;56280;49.662;8.408;2023-02-28T05:37:14;15.90;;;14.37;;
69172;SDS011;56280;49.662;8.408;2023-02-28T05:39:41;15.23;;;13.82;;
69172;SDS011;56280;49.662;8.408;2023-02-28T05:42:06;16.33;;;14.83;;
69172;SDS011;56280;49.662;8.408;2023-02-28T05:44:32;16.33;;;14.93;;
69172;SDS011;56280;49.662;8.408;2023-02-28T05:46:57;14.90;;;13.60;;
69172;SDS011;56280;49.662;8.408;2023-02-28T05:49:22;15.70;;;14.30;;
69172;SDS011;56280;49.662;8.408;2023-02-28T05:51:48;15.73;;;14.40;;
69172;SDS011;56280;49.662;8.408;2023-02-28T05:54:13;15.83;;;14.43;;
69172;SDS011;56280;49.662;8.408;2023-02-28T05:56:38;15.13;;;13.80;;
69172;SDS011;56280;49.662;8.408;2023-02-28T05:59:05;15.33;;;14.03;;
69172;SDS011;56280;49.662;8.408;2023-02-28T06:01:41;14.98;;;13.68;;
69172;SDS011;56280;49.662;8.408;2023-02-28T06:04:12;16.08;;;14.77;;
69172;SDS011;56280;49.662;8.408;2023-02-28T06:06:39;15.18;;;13.88;;
69172;SDS011;56280;49.662;8.408;2023-02-28T06:09:05;15.93;;;14.53;;
69172;SDS011;56280;49.662;8.408;2023-02-28T06:11:30;15.00;;;13.70;;
69172;SDS011;56280;49.662;8.408;2023-02-28T06:13:56;15.53;;;14.23;;
69172;SDS011;56280;49.662;8.408;2023-02-28T06:16:24;15.13;;;13.88;;
69172;SDS011;56280;49.662;8.408;2023-02-28T06:18:51;16.73;;;15.32;;
69172;SDS011;56280;49.662;8.408;2023-02-28T06:21:17;15.27;;;14.07;;
69172;SDS011;56280;49.662;8.408;2023-02-28T06:23:43;14.57;;;13.37;;
69172;SDS011;56280;49.662;8.408;2023-02-28T06:26:08;15.83;;;14.43;;
69172;SDS011;56280;49.662;8.408;2023-02-28T06:28:34;14.80;;;13.55;;
69172;SDS011;56280;49.662;8.408;2023-02-28T06:30:59;14.67;;;13.47;;
69172;SDS011;56280;49.662;8.408;2023-02-28T06:33:31;14.05;;;12.85;;
69172;SDS011;56280;49.662;8.408;2023-02-28T06:35:56;15.00;;;13.73;;
69172;SDS011;56280;49.662;8.408;2023-02-28T06:38:21;15.02;;;13.82;;
69172;SDS011;56280;49.662;8.408;2023-02-28T06:40:56;16.07;;;14.73;;
69172;SDS011;56280;49.662;8.408;2023-02-28T06:43:23;15.35;;;14.18;;
69172;SDS011;56280;49.662;8.408;2023-02-28T06:45:49;13.68;;;12.48;;
69172;SDS011;56280;49.662;8.408;2023-02-28T06:48:14;15.67;;;14.37;;
69172;SDS011;56280;49.662;8.408;2023-02-28T06:50:40;16.17;;;14.87;;
69172;SDS011;56280;49.662;8.408;2023-02-28T06:53:05;15.67;;;14.37;;
69172;SDS011;56280;49.662;8.408;2023-02-28T06:55:33;16.40;;;15.00;;
69172;SDS011;56280;49.662;8.408;2023-02-28T06:57:59;14.77;;;13.50;;
69172;SDS011;56280;49.662;8.408;2023-02-28T07:00:24;15.35;;;14.05;;
69172;SDS011;56280;49.662;8.408;2023-02-28T07:02:50;15.80;;;14.50;;
69172;SDS011;56280;49.662;8.408;2023-02-28T07:05:15;15.40;;;14.03;;
69172;SDS011;56280;49.662;8.408;2023-02-28T07:07:40;14.87;;;13.57;;
69172;SDS011;56280;49.662;8.408;2023-02-28T07:10:09;15.98;;;14.77;;
69172;SDS011;56280;49.662;8.408;2023-02-28T07:12:39;16.17;;;14.70;;
69172;SDS011;56280;49.662;8.408;2023-02-28T07:15:05;14.60;;;13.30;;
69172;SDS011;56280;49.662;8.408;2023-02-28T07:17:30;15.27;;;14.03;;
69172;SDS011;56280;49.662;8.408;2023-02-28T07:19:56;15.30;;;13.90;;
69172;SDS011;56280;49.662;8.408;2023-02-28T07:22:21;14.97;;;13.77;;
69172;SDS011;56280;49.662;8.408;2023-02-28T07:24:47;15.07;;;13.70;;
69172;SDS011;56280;49.662;8.408;2023-02-28T07:27:12;15.45;;;14.25;;
69172;SDS011;56280;49.662;8.408;2023-02-28T07:29:50;15.15;;;13.88;;
69172;SDS011;56280;49.662;8.408;2023-02-28T07:32:16;13.75;;;12.60;;
69172;SDS011;56280;49.662;8.408;2023-02-28T07:34:42;14.23;;;13.03;;
69172;SDS011;56280;49.662;8.408;2023-02-28T07:37:07;14.07;;;12.77;;
69172;SDS011;56280;49.662;8.408;2023-02-28T07:39:32;15.30;;;14.00;;
69172;SDS011;56280;49.662;8.408;2023-02-28T07:41:57;14.07;;;12.97;;
69172;SDS011;56280;49.662;8.408;2023-02-28T07:44:24;14.25;;;13.18;;
69172;SDS011;56280;49.662;8.408;2023-02-28T07:46:50;15.47;;;14.17;;
69172;SDS011;56280;49.662;8.408;2023-02-28T07:49:15;14.27;;;13.07;;
69172;SDS011;56280;49.662;8.408;2023-02-28T07:51:40;14.33;;;13.03;;
69172;SDS011;56280;49.662;8.408;2023-02-28T07:54:06;14.40;;;13.30;;
69172;SDS011;56280;49.662;8.408;2023-02-28T07:56:31;14.90;;;13.73;;
69172;SDS011;56280;49.662;8.408;2023-02-28T07:58:57;16.37;;;15.10;;
69172;SDS011;56280;49.662;8.408;2023-02-28T08:01:22;16.53;;;15.13;;
69172;SDS011;56280;49.662;8.408;2023-02-28T08:03:47;15.83;;;14.57;;
69172;SDS011;56280;49.662;8.408;2023-02-28T08:06:17;14.40;;;13.30;;
69172;SDS011;56280;49.662;8.408;2023-02-28T08:08:45;14.60;;;13.27;;
69172;SDS011;56280;49.662;8.408;2023-02-28T08:11:11;14.03;;;12.90;;
69172;SDS011;56280;49.662;8.408;2023-02-28T08:13:36;14.87;;;13.67;;
69172;SDS011;56280;49.662;8.408;2023-02-28T08:16:01;13.33;;;12.23;;
69172;SDS011;56280;49.662;8.408;2023-02-28T08:18:27;13.40;;;12.30;;
69172;SDS011;56280;49.662;8.408;2023-02-28T08:20:53;15.33;;;14.17;;
69172;SDS011;56280;49.662;8.408;2023-02-28T08:23:18;13.70;;;12.60;;
69172;SDS011;56280;49.662;8.408;2023-02-28T08:25:43;13.97;;;12.87;;
69172;SDS011;56280;49.662;8.408;2023-02-28T08:28:09;13.57;;;12.47;;
69172;SDS011;56280;49.662;8.408;2023-02-28T08:30:34;15.27;;;13.77;;
69172;SDS011;56280;49.662;8.408;2023-02-28T08:32:59;13.97;;;12.87;;
69172;SDS011;56280;49.662;8.408;2023-02-28T08:35:26;13.43;;;12.35;;
69172;SDS011;56280;49.662;8.408;2023-02-28T08:37:51;13.83;;;12.80;;
69172;SDS011;56280;49.662;8.408;2023-02-28T08:40:17;14.40;;;13.30;;
69172;SDS011;56280;49.662;8.408;2023-02-28T08:42:45;14.27;;;13.18;;
69172;SDS011;56280;49.662;8.408;2023-02-28T08:45:11;14.53;;;13.43;;
69172;SDS011;56280;49.662;8.408;2023-02-28T08:47:37;13.90;;;12.80;;
69172;SDS011;56280;49.662;8.408;2023-02-28T08:50:02;14.23;;;13.13;;
69172;SDS011;56280;49.662;8.408;2023-02-28T08:52:28;14.30;;;13.20;;
69172;SDS011;56280;49.662;8.408;2023-02-28T08:54:53;15.43;;;14.23;;
69172;SDS011;56280;49.662;8.408;2023-02-28T08:57:19;14.83;;;13.63;;
69172;SDS011;56280;49.662;8.408;2023-02-28T08:59:51;14.27;;;13.17;;
69172;SDS011;56280;49.662;8.408;2023-02-28T09:02:17;16.05;;;14.68;;
69172;SDS011;56280;49.662;8.408;2023-02-28T09:04:42;15.30;;;14.10;;
69172;SDS011;56280;49.662;8.408;2023-02-28T09:07:12;16.33;;;14.93;;
69172;SDS011;56280;49.662;8.408;2023-02-28T09:09:37;16.50;;;15.00;;
69172;SDS011;56280;49.662;8.408;2023-02-28T09:12:02;17.35;;;15.95;;
69172;SDS011;56280;49.662;8.408;2023-02-28T09:14:28;15.95;;;14.55;;
69172;SDS011;56280;49.662;8.408;2023-02-28T09:16:53;19.07;;;17.67;;
69172;SDS011;56280;49.662;8.408;2023-02-28T09:19:21;20.02;;;18.55;;
69172;SDS011;56280;49.662;8.408;2023-02-28T09:21:47;17.85;;;16.35;;
69172;SDS011;56280;49.662;8.408;2023-02-28T09:24:12;18.33;;;16.93;;
69172;SDS011;56280;49.662;8.408;2023-02-28T09:26:40;18.65;;;17.25;;
69172;SDS011;56280;49.662;8.408;2023-02-28T09:29:05;20.10;;;18.60;;
69172;SDS011;56280;49.662;8.408;2023-02-28T09:31:31;19.77;;;18.17;;
69172;SDS011;56280;49.662;8.408;2023-02-28T09:33:58;18.70;;;17.20;;
69172;SDS011;56280;49.662;8.408;2023-02-28T09:36:24;17.63;;;16.23;;
69172;SDS011;56280;49.662;8.408;2023-02-28T09:38:53;18.58;;;16.88;;
69172;SDS011;56280;49.662;8.408;2023-02-28T09:41:22;19.03;;;17.57;;
69172;SDS011;56280;49.662;8.408;2023-02-28T09:43:52;17.97;;;16.57;;
69172;SDS011;56280;49.662;8.408;2023-02-28T09:46:37;19.73;;;18.10;;
69172;SDS011;56280;49.662;8.408;2023-02-28T09:49:15;19.10;;;17.50;;
69172;SDS011;56280;49.662;8.408;2023-02-28T09:52:01;20.48;;;18.75;;
69172;SDS011;56280;49.662;8.408;2023-02-28T09:54:30;19.98;;;18.48;;
69172;SDS011;56280;49.662;8.408;2023-02-28T10:05:17;19.92;;;18.33;;
69172;SDS011;56280;49.662;8.408;2023-02-28T10:07:50;23.08;;;21.30;;
69172;SDS011;56280;49.662;8.408;2023-02-28T10:10:26;21.90;;;20.20;;
69172;SDS011;56280;49.662;8.408;2023-02-28T10:12:56;23.00;;;21.20;;
69172;SDS011;56280;49.662;8.408;2023-02-28T10:15:24;22.33;;;20.55;;
69172;SDS011;56280;49.662;8.408;2023-02-28T10:17:57;20.95;;;19.45;;
69172;SDS011;56280;49.662;8.408;2023-02-28T10:20:25;24.52;;;22.63;;
69172;SDS011;56280;49.662;8.408;2023-02-28T10:26:04;21.52;;;19.85;;
69172;SDS011;56280;49.662;8.408;2023-02-28T10:28:36;23.70;;;21.90;;
69172;SDS011;56280;49.662;8.408;2023-02-28T10:31:01;23.27;;;21.47;;
69172;SDS011;56280;49.662;8.408;2023-02-28T10:33:31;22.90;;;21.02;;
69172;SDS011;56280;49.662;8.408;2023-02-28T10:35:59;21.50;;;19.88;;
69172;SDS011;56280;49.662;8.408;2023-02-28T10:38:28;20.95;;;19.30;;
69172;SDS011;56280;49.662;8.408;2023-02-28T10:41:08;23.38;;;21.67;;
69172;SDS011;56280;49.662;8.408;2023-02-28T10:43:34;23.13;;;21.48;;
69172;SDS011;56280;49.662;8.408;2023-02-28T10:46:04;23.65;;;21.75;;
69172;SDS011;56280;49.662;8.408;2023-02-28T10:48:40;22.77;;;21.08;;
69172;SDS011;56280;49.662;8.408;2023-02-28T10:51:12;23.88;;;21.95;;
69172;SDS011;56280;49.662;8.408;2023-02-28T11:03:42;24.20;;;22.30;;
69172;SDS011;56280;49.662;8.408;2023-02-28T11:06:12;21.33;;;19.73;;
69172;SDS011;56280;49.662;8.408;2023-02-28T11:08:44;22.25;;;20.45;;
69172;SDS011;56280;49.662;8.408;2023-02-28T11:11:12;24.33;;;22.50;;
69172;SDS011;56280;49.662;8.408;2023-02-28T11:13:38;21.00;;;19.35;;
69172;SDS011;56280;49.662;8.408;2023-02-28T11:16:05;23.73;;;21.83;;
69172;SDS011;56280;49.662;8.408;2023-02-28T11:21:33;24.17;;;22.40;;
69172;SDS011;56280;49.662;8.408;2023-02-28T11:24:06;23.67;;;21.77;;
69172;SDS011;56280;49.662;8.408;2023-02-28T11:26:44;22.08;;;20.38;;
69172;SDS011;56280;49.662;8.408;2023-02-28T11:29:21;25.65;;;23.75;;
69172;SDS011;56280;49.662;8.408;2023-02-28T11:34:37;24.25;;;22.48;;
69172;SDS011;56280;49.662;8.408;2023-02-28T11:37:04;23.17;;;21.40;;
69172;SDS011;56280;49.662;8.408;2023-02-28T11:39:35;24.07;;;22.30;;
69172;SDS011;56280;49.662;8.408;2023-02-28T11:53:04;25.08;;;23.17;;
69172;SDS011;56280;49.662;8.408;2023-02-28T11:55:39;24.65;;;22.80;;
69172;SDS011;56280;49.662;8.408;2023-02-28T11:58:47;26.43;;;24.57;;
69172;SDS011;56280;49.662;8.408;2023-02-28T12:01:31;24.00;;;22.10;;
69172;SDS011;56280;49.662;8.408;2023-02-28T12:04:10;23.40;;;21.60;;
69172;SDS011;56280;49.662;8.408;2023-02-28T12:06:49;25.63;;;23.63;;
69172;SDS011;56280;49.662;8.408;2023-02-28T12:23:25;26.02;;;24.13;;
69172;SDS011;56280;49.662;8.408;2023-02-28T12:29:12;24.85;;;23.08;;
69172;SDS011;56280;49.662;8.408;2023-02-28T12:31:40;24.75;;;23.02;;
69172;SDS011;56280;49.662;8.408;2023-02-28T12:34:12;23.23;;;21.47;;
69172;SDS011;56280;49.662;8.408;2023-02-28T12:36:45;24.73;;;22.73;;
69172;SDS011;56280;49.662;8.408;2023-02-28T12:39:33;24.33;;;22.45;;
69172;SDS011;56280;49.662;8.408;2023-02-28T12:42:11;25.00;;;23.23;;
69172;SDS011;56280;49.662;8.408;2023-02-28T12:44:44;24.08;;;22.17;;
69172;SDS011;56280;49.662;8.408;2023-02-28T12:47:15;25.73;;;23.93;;
69172;SDS011;56280;49.662;8.408;2023-02-28T12:49:45;24.75;;;22.90;;
69172;SDS011;56280;49.662;8.408;2023-02-28T12:52:23;25.40;;;23.47;;
69172;SDS011;56280;49.662;8.408;2023-02-28T12:54:59;26.00;;;24.00;;
69172;SDS011;56280;49.662;8.408;2023-02-28T12:57:45;24.15;;;22.25;;
69172;SDS011;56280;49.662;8.408;2023-02-28T13:00:19;26.07;;;24.07;;
69172;SDS011;56280;49.662;8.408;2023-02-28T13:10:59;24.05;;;22.10;;
69172;SDS011;56280;49.662;8.408;2023-02-28T13:13:25;24.30;;;22.57;;
69172;SDS011;56280;49.662;8.408;2023-02-28T13:18:36;24.73;;;22.92;;
69172;SDS011;56280;49.662;8.408;2023-02-28T13:21:04;23.05;;;21.25;;
69172;SDS011;56280;49.662;8.408;2023-02-28T13:26:11;25.77;;;23.77;;
69172;SDS011;56280;49.662;8.408;2023-02-28T13:31:25;25.65;;;23.77;;
69172;SDS011;56280;49.662;8.408;2023-02-28T13:36:23;27.52;;;25.48;;
69172;SDS011;56280;49.662;8.408;2023-02-28T13:38:52;22.70;;;20.80;;
69172;SDS011;56280;49.662;8.408;2023-02-28T13:51:53;26.65;;;24.65;;
69172;SDS011;56280;49.662;8.408;2023-02-28T14:02:53;21.70;;;19.90;;
69172;SDS011;56280;49.662;8.408;2023-02-28T14:05:34;23.23;;;21.27;;
69172;SDS011;56280;49.662;8.408;2023-02-28T14:08:04;22.25;;;20.50;;
69172;SDS011;56280;49.662;8.408;2023-02-28T14:10:44;25.80;;;23.90;;
69172;SDS011;56280;49.662;8.408;2023-02-28T14:16:21;26.10;;;24.20;;
69172;SDS011;56280;49.662;8.408;2023-02-28T14:21:34;23.23;;;21.25;;
69172;SDS011;56280;49.662;8.408;2023-02-28T14:29:18;24.35;;;22.55;;
69172;SDS011;56280;49.662;8.408;2023-02-28T14:32:14;23.85;;;22.13;;
69172;SDS011;56280;49.662;8.408;2023-02-28T14:34:54;24.30;;;22.50;;
69172;SDS011;56280;49.662;8.408;2023-02-28T14:37:32;25.45;;;23.55;;
69172;SDS011;56280;49.662;8.408;2023-02-28T14:40:01;24.23;;;22.42;;
69172;SDS011;56280;49.662;8.408;2023-02-28T14:45:03;22.00;;;20.10;;
69172;SDS011;56280;49.662;8.408;2023-02-28T14:47:33;23.85;;;21.95;;
69172;SDS011;56280;49.662;8.408;2023-02-28T14:50:00;23.58;;;21.77;;
69172;SDS011;56280;49.662;8.408;2023-02-28T14:52:29;22.53;;;20.73;;
69172;SDS011;56280;49.662;8.408;2023-02-28T14:55:00;21.90;;;20.20;;
69172;SDS011;56280;49.662;8.408;2023-02-28T14:57:33;23.75;;;21.95;;
69172;SDS011;56280;49.662;8.408;2023-02-28T15:00:23;24.00;;;22.13;;
69172;SDS011;56280;49.662;8.408;2023-02-28T15:02:49;22.60;;;20.80;;
69172;SDS011;56280;49.662;8.408;2023-02-28T15:07:46;24.50;;;22.60;;
69172;SDS011;56280;49.662;8.408;2023-02-28T15:12:46;24.58;;;22.67;;
69172;SDS011;56280;49.662;8.408;2023-02-28T15:15:15;22.88;;;20.98;;
69172;SDS011;56280;49.662;8.408;2023-02-28T15:17:42;22.88;;;21.08;;
69172;SDS011;56280;49.662;8.408;2023-02-28T15:20:12;24.73;;;22.73;;
69172;SDS011;56280;49.662;8.408;2023-02-28T15:22:40;24.73;;;22.83;;
69172;SDS011;56280;49.662;8.408;2023-02-28T15:25:05;24.17;;;22.23;;
69172;SDS011;56280;49.662;8.408;2023-02-28T15:27:33;23.40;;;21.50;;
69172;SDS011;56280;49.662;8.408;2023-02-28T15:30:49;27.13;;;25.15;;
69172;SDS011;56280;49.662;8.408;2023-02-28T15:33:06;23.80;;;21.90;;
69172;SDS011;56280;49.662;8.408;2023-02-28T15:35:43;22.52;;;20.80;;
69172;SDS011;56280;49.662;8.408;2023-02-28T15:38:17;22.73;;;21.00;;
69172;SDS011;56280;49.662;8.408;2023-02-28T15:40:51;23.35;;;21.52;;
69172;SDS011;56280;49.662;8.408;2023-02-28T15:48:45;23.60;;;21.65;;
69172;SDS011;56280;49.662;8.408;2023-02-28T15:51:20;24.08;;;22.27;;
69172;SDS011;56280;49.662;8.408;2023-02-28T15:56:26;23.00;;;21.13;;
69172;SDS011;56280;49.662;8.408;2023-02-28T15:58:53;23.73;;;21.92;;
69172;SDS011;56280;49.662;8.408;2023-02-28T16:01:25;24.38;;;22.67;;
69172;SDS011;56280;49.662;8.408;2023-02-28T16:03:53;24.13;;;22.27;;
69172;SDS011;56280;49.662;8.408;2023-02-28T16:06:25;24.05;;;22.23;;
69172;SDS011;56280;49.662;8.408;2023-02-28T16:08:57;22.55;;;20.77;;
69172;SDS011;56280;49.662;8.408;2023-02-28T16:11:22;22.55;;;20.85;;
69172;SDS011;56280;49.662;8.408;2023-02-28T16:13:47;25.13;;;23.23;;
69172;SDS011;56280;49.662;8.408;2023-02-28T16:16:15;24.40;;;22.60;;
69172;SDS011;56280;49.662;8.408;2023-02-28T16:18:42;22.63;;;20.93;;
69172;SDS011;56280;49.662;8.408;2023-02-28T16:21:08;23.80;;;22.03;;
69172;SDS011;56280;49.662;8.408;2023-02-28T16:23:33;23.58;;;21.73;;
69172;SDS011;56280;49.662;8.408;2023-02-28T16:25:58;25.13;;;23.13;;
69172;SDS011;56280;49.662;8.408;2023-02-28T16:28:25;24.20;;;22.40;;
69172;SDS011;56280;49.662;8.408;2023-02-28T16:30:57;25.48;;;23.55;;
69172;SDS011;56280;49.662;8.408;2023-02-28T16:33:25;23.10;;;21.30;;
69172;SDS011;56280;49.662;8.408;2023-02-28T16:35:50;25.53;;;23.70;;
69172;SDS011;56280;49.662;8.408;2023-02-28T16:38:38;23.63;;;21.83;;
69172;SDS011;56280;49.662;8.408;2023-02-28T16:41:02;23.58;;;21.77;;
69172;SDS011;56280;49.662;8.408;2023-02-28T16:43:27;23.80;;;22.00;;
69172;SDS011;56280;49.662;8.408;2023-02-28T16:45:56;21.57;;;19.83;;
69172;SDS011;56280;49.662;8.408;2023-02-28T16:48:23;23.45;;;21.50;;
69172;SDS011;56280;49.662;8.408;2023-02-28T16:50:49;23.70;;;21.80;;
69172;SDS011;56280;49.662;8.408;2023-02-28T16:53:15;24.83;;;22.93;;
69172;SDS011;56280;49.662;8.408;2023-02-28T16:55:40;21.70;;;20.00;;
69172;SDS011;56280;49.662;8.408;2023-02-28T16:58:05;26.03;;;24.23;;
69172;SDS011;56280;49.662;8.408;2023-02-28T17:00:31;22.93;;;21.33;;
69172;SDS011;56280;49.662;8.408;2023-02-28T17:02:57;24.77;;;22.88;;
69172;SDS011;56280;49.662;8.408;2023-02-28T17:05:24;21.77;;;20.00;;
69172;SDS011;56280;49.662;8.408;2023-02-28T17:07:53;25.67;;;23.83;;
69172;SDS011;56280;49.662;8.408;2023-02-28T17:10:19;22.80;;;20.83;;
69172;SDS011;56280;49.662;8.408;2023-02-28T17:12:46;24.27;;;22.40;;
69172;SDS011;56280;49.662;8.408;2023-02-28T17:15:13;23.17;;;21.33;;